Time;durP1;ratioP1;P1;durP2;ratioP2;P2;SDS_P1;SDS_P2;PMS_P1;PMS_P2;Temp;Humidity;BMP_temperature;BMP_pressure;BME280_temperature;BME280_humidity;BME280_pressure;Samples;Min_cycle;Max_cycle;Signal;HPM_P1;HPM_P2
2022/09/18 00:01:20;;;;;;;12.67;4.67;;;10.20;99.90;;;;;;5053723;28;20179;-70
2022/09/18 00:03:46;;;;;;;13.43;4.60;;;10.20;99.90;;;;;;5053667;28;20304;-70
2022/09/18 00:06:15;;;;;;;16.70;5.33;;;10.10;99.90;;;;;;5061424;28;20216;-70
2022/09/18 00:08:42;;;;;;;9.67;5.17;;;10.20;99.90;;;;;;5093667;28;20193;-70
2022/09/18 00:11:11;;;;;;;9.03;5.00;;;10.20;99.90;;;;;;5078951;28;20181;-70
2022/09/18 00:13:38;;;;;;;12.40;5.50;;;10.20;99.90;;;;;;5052156;28;20752;-70
2022/09/18 00:16:06;;;;;;;8.83;5.47;;;10.20;99.90;;;;;;5053491;28;20171;-70
2022/09/18 00:18:32;;;;;;;8.83;5.53;;;10.20;99.90;;;;;;5053590;28;20197;-70
2022/09/18 00:21:12;;;;;;;13.27;7.00;;;10.20;99.90;;;;;;5053278;28;20536;-70
2022/09/18 00:23:38;;;;;;;15.37;7.27;;;10.20;99.90;;;;;;5053257;28;20534;-70
2022/09/18 00:26:05;;;;;;;12.83;7.83;;;10.20;99.90;;;;;;5053575;28;20173;-70
2022/09/18 00:28:31;;;;;;;19.23;11.27;;;10.30;99.90;;;;;;5053299;28;20202;-70
2022/09/18 00:31:09;;;;;;;15.97;11.50;;;10.30;99.90;;;;;;5053549;28;20170;-70
2022/09/18 00:33:35;;;;;;;18.77;11.53;;;10.30;99.90;;;;;;5053400;28;20248;-70
2022/09/18 00:36:06;;;;;;;19.47;13.80;;;10.30;99.90;;;;;;5059891;28;20181;-70
2022/09/18 00:38:32;;;;;;;21.63;14.77;;;10.30;99.90;;;;;;5093366;28;20193;-70
2022/09/18 00:41:03;;;;;;;27.30;14.70;;;10.30;99.90;;;;;;5079958;28;20697;-70
2022/09/18 00:43:31;;;;;;;23.87;15.40;;;10.40;99.90;;;;;;5053276;28;20232;-69
2022/09/18 00:46:06;;;;;;;27.10;15.27;;;10.40;99.90;;;;;;5053391;28;20170;-69
2022/09/18 00:48:50;;;;;;;20.60;14.80;;;10.40;99.90;;;;;;5053206;28;20198;-70
2022/09/18 00:51:17;;;;;;;24.13;14.97;;;10.50;99.90;;;;;;5051574;28;20171;-69
2022/09/18 00:53:50;;;;;;;17.80;14.00;;;10.50;99.90;;;;;;5052761;28;20199;-69
2022/09/18 00:56:17;;;;;;;16.87;13.30;;;10.50;99.90;;;;;;5053294;28;20585;-69
2022/09/18 00:58:44;;;;;;;27.50;13.67;;;10.40;99.90;;;;;;5052925;28;20291;-70
2022/09/18 01:01:11;;;;;;;19.60;12.77;;;10.40;99.90;;;;;;5053068;28;20182;-70
2022/09/18 01:03:37;;;;;;;16.03;12.57;;;10.40;99.90;;;;;;5051701;28;20182;-70
2022/09/18 01:06:19;;;;;;;24.97;12.47;;;10.40;99.90;;;;;;5058836;28;20195;-70
2022/09/18 01:09:16;;;;;;;15.83;12.03;;;10.40;99.90;;;;;;5091732;28;20287;-70
2022/09/18 01:12:20;;;;;;;18.73;11.70;;;10.40;99.90;;;;;;5068828;28;20178;-70
2022/09/18 01:15:08;;;;;;;17.43;11.97;;;10.40;99.90;;;;;;5034299;28;20578;-70
2022/09/18 01:18:07;;;;;;;21.10;12.00;;;10.40;99.90;;;;;;5056442;28;20170;-70
2022/09/18 01:20:55;;;;;;;16.33;11.33;;;10.50;99.90;;;;;;5056314;28;20627;-70
2022/09/18 01:24:11;;;;;;;17.33;11.77;;;10.40;99.90;;;;;;5056654;28;20625;-70
2022/09/18 01:26:43;;;;;;;21.87;13.53;;;10.40;99.90;;;;;;5056025;28;20189;-72
2022/09/18 01:29:24;;;;;;;21.23;13.37;;;10.50;99.90;;;;;;5056773;28;20730;-71
2022/09/18 01:32:00;;;;;;;21.03;13.03;;;10.40;99.90;;;;;;5056892;28;20502;-69
2022/09/18 01:34:52;;;;;;;17.60;11.53;;;10.50;99.90;;;;;;5054876;28;20690;-70
2022/09/18 01:37:39;;;;;;;16.63;11.50;;;10.50;99.90;;;;;;5081599;28;20254;-70
2022/09/18 01:40:25;;;;;;;21.63;12.83;;;10.50;99.90;;;;;;5094747;28;20212;-70
2022/09/18 01:42:53;;;;;;;20.97;12.23;;;10.40;99.90;;;;;;5056069;28;20167;-70
2022/09/18 01:45:25;;;;;;;19.40;11.77;;;10.40;99.90;;;;;;5054697;28;20174;-70
2022/09/18 01:47:56;;;;;;;20.10;11.77;;;10.40;99.90;;;;;;5054762;28;20649;-70
2022/09/18 01:50:26;;;;;;;15.47;11.03;;;10.50;99.90;;;;;;5055972;28;20174;-70
2022/09/18 01:53:14;;;;;;;19.00;13.27;;;10.40;99.90;;;;;;5054353;28;20186;-70
2022/09/18 01:55:41;;;;;;;18.37;13.03;;;10.40;99.90;;;;;;5056081;28;20254;-70
2022/09/18 01:58:18;;;;;;;20.17;14.13;;;10.50;99.90;;;;;;5064870;28;20291;-72
2022/09/18 02:00:50;;;;;;;23.90;14.50;;;10.50;99.90;;;;;;5075799;28;20154;-70
2022/09/18 02:03:49;;;;;;;25.00;14.27;;;10.50;99.90;;;;;;5075985;28;20748;-70
2022/09/18 02:06:27;;;;;;;21.23;14.13;;;10.50;99.90;;;;;;5079977;28;20201;-70
2022/09/18 02:08:55;;;;;;;23.70;14.27;;;10.50;99.90;;;;;;5095606;28;20216;-70
2022/09/18 02:11:22;;;;;;;23.17;14.30;;;10.50;99.90;;;;;;5077213;28;20244;-70
2022/09/18 02:14:14;;;;;;;22.33;13.37;;;10.50;99.90;;;;;;5055351;28;20203;-70
2022/09/18 02:16:49;;;;;;;25.93;13.40;;;10.50;99.90;;;;;;5054099;28;20293;-69
2022/09/18 02:19:17;;;;;;;20.43;13.40;;;10.50;99.90;;;;;;5055496;28;20201;-70
2022/09/18 02:21:45;;;;;;;27.93;12.73;;;10.50;99.90;;;;;;5054922;28;20171;-70
2022/09/18 02:24:14;;;;;;;15.40;11.23;;;10.50;99.90;;;;;;5055273;28;20186;-70
2022/09/18 02:26:41;;;;;;;17.03;11.20;;;10.50;99.90;;;;;;5055316;28;20171;-70
2022/09/18 02:29:11;;;;;;;20.33;10.90;;;10.60;99.90;;;;;;5054573;28;20211;-70
2022/09/18 02:31:38;;;;;;;24.00;12.70;;;10.60;99.90;;;;;;5053693;28;20550;-70
2022/09/18 02:34:07;;;;;;;20.70;12.70;;;10.60;99.90;;;;;;5055185;28;20648;-70
2022/09/18 02:36:42;;;;;;;20.23;13.07;;;10.60;99.90;;;;;;5070137;28;20522;-70
2022/09/18 02:39:34;;;;;;;21.90;12.67;;;10.60;99.90;;;;;;5093845;28;20563;-70
2022/09/18 02:42:09;;;;;;;23.53;13.43;;;10.60;99.90;;;;;;5064423;28;20289;-70
2022/09/18 02:44:41;;;;;;;22.37;14.07;;;10.60;99.90;;;;;;5055194;28;20182;-70
2022/09/18 02:47:38;;;;;;;20.70;13.97;;;10.60;99.90;;;;;;5053552;28;20182;-70
2022/09/18 02:50:17;;;;;;;27.10;15.23;;;10.60;99.90;;;;;;5053533;28;20659;-70
2022/09/18 02:53:01;;;;;;;24.67;15.33;;;10.60;99.90;;;;;;5053670;28;20201;-70
2022/09/18 02:55:34;;;;;;;25.30;15.07;;;10.70;99.90;;;;;;5058261;28;20194;-70
2022/09/18 02:58:07;;;;;;;23.83;15.30;;;10.60;99.90;;;;;;5055390;28;20190;-71
2022/09/18 03:00:34;;;;;;;24.40;15.20;;;10.60;99.90;;;;;;5053304;28;20189;-71
2022/09/18 03:03:00;;;;;;;23.67;14.93;;;10.70;99.90;;;;;;5054583;28;20185;-70
2022/09/18 03:05:27;;;;;;;24.83;15.53;;;10.70;99.90;;;;;;5054570;28;20237;-70
2022/09/18 03:07:53;;;;;;;26.17;15.63;;;10.70;99.90;;;;;;5092152;28;20279;-70
2022/09/18 03:10:19;;;;;;;26.13;15.97;;;10.70;99.90;;;;;;5093120;28;20685;-70
2022/09/18 03:12:45;;;;;;;21.80;15.77;;;10.70;99.90;;;;;;5054430;28;20639;-69
2022/09/18 03:15:11;;;;;;;21.27;14.83;;;10.70;99.90;;;;;;5054390;28;20170;-69
2022/09/18 03:17:36;;;;;;;22.67;15.73;;;10.70;99.90;;;;;;5054236;28;20646;-69
2022/09/18 03:20:05;;;;;;;26.77;15.50;;;10.60;99.90;;;;;;5052946;28;20280;-70
2022/09/18 03:22:30;;;;;;;24.73;14.37;;;10.60;99.90;;;;;;5053844;28;20178;-69
2022/09/18 03:24:56;;;;;;;22.97;14.03;;;10.60;99.90;;;;;;5053962;28;20606;-69
2022/09/18 03:27:22;;;;;;;23.60;14.00;;;10.60;99.90;;;;;;5054359;28;20190;-70
2022/09/18 03:29:47;;;;;;;24.10;14.77;;;10.70;99.90;;;;;;5054028;28;20198;-70
2022/09/18 03:32:13;;;;;;;24.10;16.50;;;10.60;99.90;;;;;;5054281;28;20232;-70
2022/09/18 03:34:39;;;;;;;24.50;15.70;;;10.60;99.90;;;;;;5052680;28;20217;-70
2022/09/18 03:37:05;;;;;;;23.90;16.70;;;10.60;99.90;;;;;;5078129;28;20227;-69
2022/09/18 03:39:30;;;;;;;20.13;15.40;;;10.60;99.90;;;;;;5092733;28;20192;-70
2022/09/18 03:41:57;;;;;;;27.87;17.60;;;10.60;99.90;;;;;;5065838;28;20178;-70
2022/09/18 03:44:22;;;;;;;27.83;18.07;;;10.60;99.90;;;;;;5054061;28;20583;-69
2022/09/18 03:46:48;;;;;;;27.33;17.23;;;10.70;99.90;;;;;;5054040;28;20174;-69
2022/09/18 03:49:14;;;;;;;28.77;18.07;;;10.70;99.90;;;;;;5053627;28;20202;-70
2022/09/18 03:51:40;;;;;;;28.57;17.60;;;10.70;99.90;;;;;;5052207;28;20178;-69
2022/09/18 03:54:05;;;;;;;28.97;18.00;;;10.60;99.90;;;;;;5053310;28;20202;-70
2022/09/18 03:56:31;;;;;;;30.17;17.80;;;10.60;99.90;;;;;;5052299;28;20281;-70
2022/09/18 03:58:57;;;;;;;29.57;18.90;;;10.60;99.90;;;;;;5053434;28;20260;-69
2022/09/18 04:01:23;;;;;;;30.27;19.33;;;10.60;99.90;;;;;;5053812;28;20170;-69
2022/09/18 04:03:48;;;;;;;26.23;18.27;;;10.60;99.90;;;;;;5052140;28;20189;-69
2022/09/18 04:06:14;;;;;;;32.93;18.67;;;10.60;99.90;;;;;;5062362;28;20185;-69
2022/09/18 04:08:40;;;;;;;30.80;18.17;;;10.60;99.90;;;;;;5092227;28;20200;-69
2022/09/18 04:11:06;;;;;;;26.87;17.87;;;10.60;99.90;;;;;;5079629;28;20178;-69
2022/09/18 04:13:33;;;;;;;27.30;17.97;;;10.50;99.90;;;;;;5053848;28;20198;-69
2022/09/18 04:15:58;;;;;;;26.00;17.77;;;10.60;99.90;;;;;;5053358;28;20661;-69
2022/09/18 04:18:24;;;;;;;24.80;16.43;;;10.60;99.90;;;;;;5051917;28;20281;-69
2022/09/18 04:20:50;;;;;;;21.80;15.57;;;10.60;99.90;;;;;;5051910;28;20257;-69
2022/09/18 04:23:17;;;;;;;28.37;17.03;;;10.50;99.90;;;;;;5053522;28;20182;-69
2022/09/18 04:25:43;;;;;;;23.10;15.30;;;10.50;99.90;;;;;;5053609;28;20257;-69
2022/09/18 04:28:09;;;;;;;24.83;14.83;;;10.50;99.90;;;;;;5053186;28;20248;-69
2022/09/18 04:30:36;;;;;;;21.47;15.13;;;10.40;99.90;;;;;;5053649;28;20174;-69
2022/09/18 04:33:02;;;;;;;20.73;14.03;;;10.40;99.90;;;;;;5053142;28;20666;-69
2022/09/18 04:35:28;;;;;;;22.97;14.87;;;10.30;99.90;;;;;;5053584;28;20170;-69
2022/09/18 04:37:54;;;;;;;19.17;14.10;;;10.40;99.90;;;;;;5089753;28;20185;-69
2022/09/18 04:40:20;;;;;;;19.20;14.53;;;10.30;99.90;;;;;;5091568;28;20183;-70
2022/09/18 04:42:45;;;;;;;22.27;14.13;;;10.30;99.90;;;;;;5052127;28;20668;-69
2022/09/18 04:45:11;;;;;;;21.30;14.67;;;10.30;99.90;;;;;;5051931;28;20647;-69
2022/09/18 04:47:37;;;;;;;19.10;15.77;;;10.20;99.90;;;;;;5051831;28;20171;-69
2022/09/18 04:50:07;;;;;;;23.80;17.13;;;10.20;99.90;;;;;;5053862;28;20190;-68
2022/09/18 04:52:33;;;;;;;26.80;17.90;;;10.20;99.90;;;;;;5055331;28;20179;-69
2022/09/18 04:54:59;;;;;;;26.63;18.37;;;10.20;99.90;;;;;;5056669;28;20194;-69
2022/09/18 04:57:25;;;;;;;33.70;19.23;;;10.20;99.90;;;;;;5055584;28;20193;-69
2022/09/18 04:59:51;;;;;;;32.03;18.47;;;10.20;99.90;;;;;;5056699;28;20537;-69
2022/09/18 05:02:18;;;;;;;29.67;16.70;;;10.20;99.90;;;;;;5055709;28;20228;-69
2022/09/18 05:04:43;;;;;;;29.57;18.83;;;10.20;99.90;;;;;;5055752;28;20186;-69
2022/09/18 05:07:09;;;;;;;28.97;17.87;;;10.20;99.90;;;;;;5080637;28;20185;-69
2022/09/18 05:09:35;;;;;;;31.10;16.43;;;10.10;99.90;;;;;;5096664;28;20657;-69
2022/09/18 05:12:02;;;;;;;30.00;17.37;;;10.20;99.90;;;;;;5067132;28;20178;-69
2022/09/18 05:14:27;;;;;;;28.90;17.87;;;10.10;99.90;;;;;;5056597;28;20202;-69
2022/09/18 05:16:55;;;;;;;22.57;17.20;;;10.10;99.90;;;;;;5055402;28;20170;-69
2022/09/18 05:19:21;;;;;;;23.63;16.40;;;10.20;99.90;;;;;;5057526;28;20186;-69
2022/09/18 05:21:50;;;;;;;24.23;16.53;;;10.10;99.90;;;;;;5055589;28;20170;-69
2022/09/18 05:24:16;;;;;;;30.20;17.23;;;10.10;99.90;;;;;;5056483;28;20212;-69
2022/09/18 05:26:43;;;;;;;22.03;15.77;;;10.10;99.90;;;;;;5056308;28;20670;-69
2022/09/18 05:29:10;;;;;;;24.37;16.80;;;10.10;99.90;;;;;;5054704;28;20210;-70
2022/09/18 05:31:35;;;;;;;21.47;14.87;;;10.10;99.90;;;;;;5054945;28;20174;-69
2022/09/18 05:34:01;;;;;;;19.70;15.33;;;10.10;99.90;;;;;;5054752;28;20590;-69
2022/09/18 05:36:27;;;;;;;21.27;14.73;;;10.10;99.90;;;;;;5069771;28;20195;-69
2022/09/18 05:38:53;;;;;;;23.27;14.43;;;10.10;99.90;;;;;;5094969;28;20228;-69
2022/09/18 05:41:18;;;;;;;20.60;14.50;;;10.10;99.90;;;;;;5077115;28;20222;-69
2022/09/18 05:43:44;;;;;;;21.23;14.33;;;10.10;99.90;;;;;;5056521;28;20253;-69
2022/09/18 05:46:10;;;;;;;22.37;13.77;;;10.10;99.90;;;;;;5054803;28;20598;-69
2022/09/18 05:48:36;;;;;;;23.27;14.80;;;10.10;99.90;;;;;;5056544;28;20285;-70
2022/09/18 05:51:02;;;;;;;21.33;13.53;;;10.10;99.90;;;;;;5054819;28;20272;-70
2022/09/18 05:53:28;;;;;;;17.37;12.27;;;10.10;99.90;;;;;;5054568;28;20573;-70
2022/09/18 05:55:53;;;;;;;20.63;12.40;;;10.10;99.90;;;;;;5056030;28;20178;-70
2022/09/18 05:58:20;;;;;;;23.20;12.50;;;10.10;99.90;;;;;;5055803;28;20203;-70
2022/09/18 06:00:46;;;;;;;20.70;11.47;;;10.00;99.90;;;;;;5055595;28;20181;-69
2022/09/18 06:03:14;;;;;;;16.57;11.90;;;10.10;99.90;;;;;;5053286;28;20670;-69
2022/09/18 06:05:40;;;;;;;21.43;11.77;;;10.10;99.90;;;;;;5056871;28;20178;-70
2022/09/18 06:08:11;;;;;;;19.03;11.60;;;10.10;99.90;;;;;;5095244;28;20250;-70
2022/09/18 06:10:39;;;;;;;20.60;12.30;;;10.10;99.90;;;;;;5088058;28;20255;-69
2022/09/18 06:13:14;;;;;;;21.73;12.57;;;10.10;99.90;;;;;;5055331;28;20250;-69
2022/09/18 06:15:44;;;;;;;16.87;10.83;;;10.10;99.90;;;;;;5054139;28;20180;-70
2022/09/18 06:18:13;;;;;;;17.47;11.30;;;10.20;99.90;;;;;;5054376;28;20556;-69
2022/09/18 06:20:40;;;;;;;12.87;10.30;;;10.20;99.90;;;;;;5053967;28;20646;-69
2022/09/18 06:23:06;;;;;;;19.27;10.23;;;10.20;99.90;;;;;;5055025;28;20254;-69
2022/09/18 06:25:31;;;;;;;17.33;9.80;;;10.20;99.90;;;;;;5055332;28;20198;-69
2022/09/18 06:27:59;;;;;;;17.80;10.83;;;10.20;99.90;;;;;;5055230;28;20536;-71
2022/09/18 06:30:30;;;;;;;15.50;9.80;;;10.20;99.90;;;;;;5055064;28;20643;-69
2022/09/18 06:33:04;;;;;;;15.80;9.60;;;10.30;99.90;;;;;;5055027;28;20225;-69
2022/09/18 06:35:33;;;;;;;15.77;10.63;;;10.30;99.90;;;;;;5055349;28;20163;-69
2022/09/18 06:38:03;;;;;;;15.33;10.60;;;10.30;99.90;;;;;;5093807;28;20177;-69
2022/09/18 06:40:32;;;;;;;19.80;11.10;;;10.30;99.90;;;;;;5089492;28;20205;-69
2022/09/18 06:43:00;;;;;;;16.37;10.27;;;10.30;99.90;;;;;;5053631;28;20179;-69
2022/09/18 06:45:27;;;;;;;20.17;11.80;;;10.30;99.90;;;;;;5054788;28;20166;-70
2022/09/18 06:47:54;;;;;;;15.53;10.80;;;10.30;99.90;;;;;;5054628;28;20576;-69
2022/09/18 06:50:24;;;;;;;21.13;11.47;;;10.30;99.90;;;;;;5054801;28;20171;-69
2022/09/18 06:52:50;;;;;;;20.43;11.80;;;10.40;99.90;;;;;;5053051;28;20182;-69
2022/09/18 06:55:17;;;;;;;15.43;10.73;;;10.40;99.90;;;;;;5054355;28;20174;-69
2022/09/18 06:57:55;;;;;;;22.17;13.17;;;10.40;99.90;;;;;;5054862;28;20662;-69
2022/09/18 07:00:21;;;;;;;16.37;11.97;;;10.40;99.90;;;;;;5053485;28;20166;-69
2022/09/18 07:02:57;;;;;;;21.70;12.77;;;10.40;99.90;;;;;;5053388;28;20178;-69
2022/09/18 07:05:30;;;;;;;23.57;12.87;;;10.40;99.90;;;;;;5054546;28;20173;-69
2022/09/18 07:07:56;;;;;;;20.27;12.87;;;10.50;99.90;;;;;;5091411;28;20661;-69
2022/09/18 07:10:23;;;;;;;20.30;12.10;;;10.50;99.90;;;;;;5091004;28;20305;-69
2022/09/18 07:12:57;;;;;;;22.87;13.63;;;10.50;99.90;;;;;;5054292;28;20220;-69
2022/09/18 07:15:25;;;;;;;21.63;14.17;;;10.50;99.90;;;;;;5052841;28;20723;-69
2022/09/18 07:17:54;;;;;;;23.80;14.27;;;10.50;99.90;;;;;;5052926;28;20253;-70
2022/09/18 07:20:19;;;;;;;20.43;13.47;;;10.50;99.90;;;;;;5054082;28;20171;-69
2022/09/18 07:22:52;;;;;;;20.87;14.00;;;10.50;99.90;;;;;;5053956;28;20245;-69
2022/09/18 07:25:18;;;;;;;20.93;14.30;;;10.60;99.90;;;;;;5054226;28;20165;-70
2022/09/18 07:27:43;;;;;;;20.10;13.87;;;10.50;99.90;;;;;;5054411;28;20186;-69
2022/09/18 07:30:10;;;;;;;22.43;13.97;;;10.60;99.90;;;;;;5054256;28;20194;-69
2022/09/18 07:32:35;;;;;;;22.50;13.67;;;10.60;99.90;;;;;;5052672;28;20174;-69
2022/09/18 07:35:01;;;;;;;19.73;13.27;;;10.50;99.90;;;;;;5052529;28;20206;-69
2022/09/18 07:37:27;;;;;;;28.27;15.77;;;10.60;99.90;;;;;;5084286;28;20213;-69
2022/09/18 07:39:53;;;;;;;24.60;14.30;;;10.50;99.90;;;;;;5092533;28;20200;-69
2022/09/18 07:42:18;;;;;;;25.30;14.43;;;10.50;99.90;;;;;;5058966;28;20186;-69
2022/09/18 07:44:44;;;;;;;19.83;13.33;;;10.50;99.90;;;;;;5053735;28;20174;-69
2022/09/18 07:47:10;;;;;;;20.87;15.00;;;10.50;99.90;;;;;;5053903;28;20170;-69
2022/09/18 07:49:37;;;;;;;20.43;14.80;;;10.50;99.90;;;;;;5052411;28;20570;-69
2022/09/18 07:52:03;;;;;;;21.37;15.07;;;10.60;99.90;;;;;;5053489;28;20539;-69
2022/09/18 07:54:30;;;;;;;22.07;14.33;;;10.60;99.90;;;;;;5053584;28;20198;-69
2022/09/18 07:56:55;;;;;;;26.17;14.77;;;10.60;99.90;;;;;;5052342;28;20174;-69
2022/09/18 07:59:21;;;;;;;23.17;14.67;;;10.60;99.90;;;;;;5053822;28;20201;-69
2022/09/18 08:01:47;;;;;;;19.17;14.77;;;10.60;99.90;;;;;;5054023;28;20174;-69
2022/09/18 08:04:13;;;;;;;20.17;14.20;;;10.60;99.90;;;;;;5053938;28;20261;-69
2022/09/18 08:06:39;;;;;;;25.50;14.13;;;10.70;99.90;;;;;;5069200;28;20615;-69
2022/09/18 08:09:05;;;;;;;19.30;13.20;;;10.70;99.90;;;;;;5092220;28;20212;-69
2022/09/18 08:11:30;;;;;;;22.63;12.07;;;10.70;99.90;;;;;;5080243;28;20190;-69
2022/09/18 08:13:56;;;;;;;20.40;12.27;;;10.70;99.90;;;;;;5051997;28;20606;-68
2022/09/18 08:16:22;;;;;;;15.90;11.20;;;10.70;99.90;;;;;;5053312;28;20232;-69
2022/09/18 08:18:48;;;;;;;15.30;12.27;;;10.70;99.90;;;;;;5053220;28;20542;-69
2022/09/18 08:21:13;;;;;;;17.47;11.63;;;10.70;99.90;;;;;;5051855;28;20258;-69
2022/09/18 08:23:39;;;;;;;18.23;11.87;;;10.70;99.90;;;;;;5053159;28;20257;-69
2022/09/18 08:26:05;;;;;;;17.30;11.90;;;10.80;99.90;;;;;;5053351;28;20659;-69
2022/09/18 08:28:31;;;;;;;20.53;12.10;;;10.80;99.90;;;;;;5055784;28;20206;-69
2022/09/18 08:30:57;;;;;;;20.47;12.57;;;10.70;99.90;;;;;;5056006;28;20265;-69
2022/09/18 08:33:23;;;;;;;18.53;12.43;;;10.80;99.90;;;;;;5055891;28;20705;-69
2022/09/18 08:35:49;;;;;;;23.33;13.07;;;10.70;99.90;;;;;;5060531;28;20190;-69
2022/09/18 08:38:15;;;;;;;17.33;12.57;;;10.70;99.90;;;;;;5097228;28;20196;-69
2022/09/18 08:41:23;;;;;;;19.50;12.57;;;10.60;99.90;;;;;;5095797;28;20209;-69
2022/09/18 08:44:00;;;;;;;16.60;12.27;;;10.60;99.90;;;;;;5056308;28;20181;-69
2022/09/18 08:46:39;;;;;;;19.50;11.13;;;10.60;99.90;;;;;;5057318;28;20159;-69
2022/09/18 08:49:46;;;;;;;13.40;9.43;;;10.60;99.90;;;;;;5056854;28;20276;-69
2022/09/18 08:52:16;;;;;;;11.83;8.40;;;10.60;99.90;;;;;;5038032;28;20244;-69
2022/09/18 08:54:41;;;;;;;15.27;8.97;;;10.60;99.90;;;;;;5054595;28;20213;-69
2022/09/18 08:57:16;;;;;;;10.87;7.87;;;10.70;99.90;;;;;;5057689;28;20273;-69
2022/09/18 08:59:57;;;;;;;8.97;6.40;;;10.60;99.90;;;;;;5075410;28;20200;-69
2022/09/18 09:02:40;;;;;;;8.93;6.27;;;10.60;99.90;;;;;;5076929;28;20513;-69
2022/09/18 09:05:19;;;;;;;8.53;5.90;;;10.60;99.90;;;;;;5075312;28;20304;-69
2022/09/18 09:08:14;;;;;;;9.17;5.53;;;10.60;99.90;;;;;;5092952;28;20191;-69
2022/09/18 09:10:56;;;;;;;5.90;4.90;;;10.60;99.90;;;;;;5095326;28;20170;-69
2022/09/18 09:14:01;;;;;;;8.33;4.67;;;10.60;99.90;;;;;;5055003;28;20199;-69
2022/09/18 09:16:38;;;;;;;6.13;4.57;;;10.40;99.90;;;;;;5056216;28;20163;-69
2022/09/18 09:19:16;;;;;;;7.00;4.60;;;10.40;99.90;;;;;;5054955;28;20569;-69
2022/09/18 09:22:25;;;;;;;4.63;4.10;;;10.40;99.90;;;;;;5056039;28;20170;-69
2022/09/18 09:24:54;;;;;;;9.73;4.50;;;10.30;99.90;;;;;;5054837;28;20171;-69
2022/09/18 09:27:57;;;;;;;4.40;3.60;;;10.20;99.90;;;;;;5055148;28;20198;-69
2022/09/18 09:30:23;;;;;;;4.30;3.90;;;10.00;99.90;;;;;;5058724;28;20186;-69
2022/09/18 09:32:55;;;;;;;6.17;3.77;;;10.00;99.90;;;;;;5056119;28;20309;-69
2022/09/18 09:35:36;;;;;;;11.47;4.50;;;10.00;99.90;;;;;;5054781;28;20228;-69
2022/09/18 09:38:24;;;;;;;5.83;4.57;;;10.10;99.90;;;;;;5094394;28;20378;-69
2022/09/18 09:40:52;;;;;;;11.17;5.37;;;10.10;99.90;;;;;;5093826;28;20189;-70
2022/09/18 09:43:26;;;;;;;7.73;5.40;;;10.10;99.90;;;;;;5056317;28;20166;-70
2022/09/18 09:46:01;;;;;;;7.93;6.00;;;10.20;99.90;;;;;;5055957;28;20186;-70
2022/09/18 09:49:20;;;;;;;9.47;6.60;;;10.30;99.90;;;;;;5055697;28;20221;-70
2022/09/18 09:51:54;;;;;;;10.37;6.87;;;10.30;99.90;;;;;;5053150;28;20626;-70
2022/09/18 09:54:20;;;;;;;11.90;7.43;;;10.40;99.90;;;;;;5054167;28;20202;-70
2022/09/18 09:57:27;;;;;;;9.67;7.57;;;10.40;99.90;;;;;;5055560;28;20175;-70
2022/09/18 09:59:58;;;;;;;9.93;7.57;;;10.50;99.90;;;;;;5042808;28;20232;-70
2022/09/18 10:03:22;;;;;;;8.47;7.67;;;10.50;99.90;;;;;;5055502;28;20179;-69
2022/09/18 10:06:01;;;;;;;13.00;8.80;;;10.50;99.90;;;;;;5015106;28;20191;-70
2022/09/18 10:08:52;;;;;;;14.33;9.50;;;10.50;99.90;;;;;;5087749;28;20235;-71
2022/09/18 10:11:19;;;;;;;11.50;8.87;;;10.50;99.90;;;;;;5086366;28;20678;-70
2022/09/18 10:14:04;;;;;;;10.27;8.90;;;10.60;99.90;;;;;;5055150;28;20198;-69
2022/09/18 10:16:51;;;;;;;11.40;8.83;;;10.60;99.90;;;;;;5053929;28;20177;-70
2022/09/18 10:19:19;;;;;;;15.73;9.43;;;10.70;99.90;;;;;;5055272;28;20201;-69
2022/09/18 10:21:46;;;;;;;14.87;10.10;;;10.60;99.90;;;;;;5053622;28;20260;-70
2022/09/18 10:24:23;;;;;;;13.93;9.83;;;10.60;99.90;;;;;;5055363;28;20182;-69
2022/09/18 10:26:55;;;;;;;12.17;9.67;;;10.60;99.90;;;;;;5055630;28;20236;-69
2022/09/18 10:29:21;;;;;;;13.00;9.97;;;10.70;99.90;;;;;;5055555;28;20573;-69
2022/09/18 10:31:51;;;;;;;11.67;8.20;;;10.80;99.90;;;;;;5055231;28;20179;-69
2022/09/18 10:34:35;;;;;;;13.07;8.50;;;10.80;99.90;;;;;;5054850;28;20198;-70
2022/09/18 10:37:02;;;;;;;9.23;7.87;;;10.80;99.90;;;;;;5077987;28;20181;-70
2022/09/18 10:39:35;;;;;;;10.93;7.13;;;10.80;99.90;;;;;;5093441;28;20234;-69
2022/09/18 10:42:05;;;;;;;7.80;6.87;;;10.70;99.90;;;;;;5073133;28;20191;-69
2022/09/18 10:44:36;;;;;;;6.87;5.60;;;10.70;99.90;;;;;;5055185;28;20178;-69
2022/09/18 10:47:09;;;;;;;10.30;6.83;;;10.70;99.90;;;;;;5054860;28;20215;-69
2022/09/18 10:49:50;;;;;;;7.60;6.57;;;10.70;99.90;;;;;;5054435;28;20621;-69
2022/09/18 10:52:32;;;;;;;10.57;7.17;;;10.80;99.90;;;;;;5054874;28;20546;-70
2022/09/18 10:55:23;;;;;;;8.53;6.47;;;10.70;99.90;;;;;;5054632;28;20606;-69
2022/09/18 10:58:13;;;;;;;11.03;6.70;;;10.80;99.90;;;;;;5054204;28;20639;-70
2022/09/18 11:00:45;;;;;;;11.67;7.03;;;10.80;99.90;;;;;;5055577;28;20163;-70
2022/09/18 11:03:29;;;;;;;8.97;6.10;;;10.80;99.90;;;;;;5056027;28;20166;-69
2022/09/18 11:06:01;;;;;;;8.00;6.00;;;10.90;99.90;;;;;;5059885;28;20175;-69
2022/09/18 11:08:32;;;;;;;9.70;5.90;;;10.90;99.90;;;;;;5094729;28;20185;-69
2022/09/18 11:11:21;;;;;;;6.87;6.03;;;10.80;99.90;;;;;;5090851;28;20219;-70
2022/09/18 11:13:56;;;;;;;8.50;6.70;;;10.80;99.90;;;;;;5051064;28;20585;-70
2022/09/18 11:16:28;;;;;;;8.90;6.70;;;10.90;99.90;;;;;;5055611;28;20261;-70
2022/09/18 11:19:11;;;;;;;8.80;6.83;;;10.90;99.90;;;;;;5054983;28;20187;-69
2022/09/18 11:21:49;;;;;;;7.60;6.57;;;10.90;99.90;;;;;;5054492;28;20235;-69
2022/09/18 11:24:22;;;;;;;8.80;6.23;;;10.90;99.90;;;;;;5052922;28;20232;-69
2022/09/18 11:26:50;;;;;;;7.87;5.83;;;10.90;99.90;;;;;;5054314;28;20194;-69
2022/09/18 11:29:20;;;;;;;9.63;5.80;;;10.90;99.90;;;;;;5054138;28;20198;-69
2022/09/18 11:31:58;;;;;;;7.73;5.67;;;10.80;99.90;;;;;;5054136;28;20178;-69
2022/09/18 11:34:27;;;;;;;14.47;5.63;;;10.90;99.90;;;;;;5054371;28;20186;-69
2022/09/18 11:36:57;;;;;;;7.87;5.07;;;10.90;99.90;;;;;;5073551;28;20687;-69
2022/09/18 11:39:32;;;;;;;8.43;5.40;;;10.90;99.90;;;;;;5092950;28;20224;-70
2022/09/18 11:41:59;;;;;;;6.07;5.47;;;10.90;99.90;;;;;;5074297;28;20624;-70
2022/09/18 11:44:31;;;;;;;12.37;7.90;;;10.90;99.90;;;;;;5054941;28;20197;-69
2022/09/18 11:47:18;;;;;;;14.17;9.73;;;10.90;99.90;;;;;;5054582;28;20167;-70
2022/09/18 11:49:54;;;;;;;12.07;9.47;;;10.90;99.90;;;;;;5054390;28;20194;-70
2022/09/18 11:52:35;;;;;;;11.20;8.57;;;10.90;99.90;;;;;;5053530;28;20171;-70
2022/09/18 11:55:12;;;;;;;15.77;10.80;;;11.00;99.90;;;;;;5053625;28;20194;-70
2022/09/18 11:57:45;;;;;;;13.43;8.60;;;10.90;99.90;;;;;;5053533;28;20646;-70
2022/09/18 12:00:26;;;;;;;10.50;8.10;;;11.00;99.90;;;;;;5052990;28;20244;-70
2022/09/18 12:02:58;;;;;;;16.83;10.43;;;10.90;99.90;;;;;;5053529;28;20181;-69
2022/09/18 12:05:38;;;;;;;12.67;8.37;;;10.90;99.90;;;;;;5053307;28;20170;-69
2022/09/18 12:08:22;;;;;;;11.37;8.20;;;10.90;99.90;;;;;;5053212;28;20615;-70
2022/09/18 12:11:11;;;;;;;13.67;7.87;;;10.90;99.90;;;;;;5053174;28;20162;-71
2022/09/18 12:14:04;;;;;;;11.03;7.97;;;10.90;99.90;;;;;;5053234;28;20186;-70
2022/09/18 12:16:48;;;;;;;12.37;7.50;;;10.90;99.90;;;;;;5053602;28;20205;-69
2022/09/18 12:19:22;;;;;;;10.73;6.57;;;10.80;99.90;;;;;;5053192;28;20201;-69
2022/09/18 12:22:06;;;;;;;9.50;6.50;;;10.80;99.90;;;;;;5052025;28;20264;-69
2022/09/18 12:24:33;;;;;;;9.17;7.57;;;10.80;99.90;;;;;;5053213;28;20171;-69
2022/09/18 12:27:24;;;;;;;8.30;6.37;;;10.80;99.90;;;;;;5051928;28;20182;-70
2022/09/18 12:30:09;;;;;;;9.80;6.17;;;10.80;99.90;;;;;;5051758;28;20210;-70
2022/09/18 12:32:47;;;;;;;9.90;5.90;;;10.80;99.90;;;;;;5053222;28;20171;-69
2022/09/18 12:35:29;;;;;;;8.87;6.00;;;10.80;99.90;;;;;;5051791;28;20206;-69
2022/09/18 12:38:21;;;;;;;13.13;6.77;;;10.90;99.90;;;;;;5089657;28;20649;-70
2022/09/18 12:41:18;;;;;;;12.17;7.17;;;10.90;99.90;;;;;;5093300;28;20184;-71
2022/09/18 12:43:46;;;;;;;8.53;5.73;;;10.90;99.90;;;;;;5053355;28;20174;-70
2022/09/18 12:46:35;;;;;;;7.93;5.90;;;10.90;99.90;;;;;;5053285;28;20179;-70
2022/09/18 12:49:39;;;;;;;8.93;6.70;;;10.90;99.90;;;;;;5051678;28;20198;-70
2022/09/18 12:52:11;;;;;;;8.57;6.80;;;10.90;99.90;;;;;;5053500;28;20537;-71
2022/09/18 12:55:04;;;;;;;11.30;7.90;;;10.90;99.90;;;;;;5052756;28;20285;-69
2022/09/18 12:57:48;;;;;;;11.47;7.60;;;10.90;99.90;;;;;;5052984;28;20631;-69
2022/09/18 13:00:16;;;;;;;11.83;7.80;;;10.90;99.90;;;;;;5053062;28;20163;-70
2022/09/18 13:03:02;;;;;;;8.37;6.97;;;10.90;99.90;;;;;;5051686;28;20228;-70